Time;durP1;ratioP1;P1;durP2;ratioP2;P2;SDS_P1;SDS_P2;PMS_P1;PMS_P2;Temp;Humidity;BMP_temperature;BMP_pressure;BME280_temperature;BME280_humidity;BME280_pressure;Samples;Min_cycle;Max_cycle;Signal;HPM_P1;HPM_P2
2022/08/18 00:00:25;;;;;;;35.28;31.42;;;15.90;99.90;;;;;;7311677;32;20261;-66
2022/08/18 00:04:27;;;;;;;39.40;35.30;;;15.90;99.90;;;;;;7315831;32;20154;-66
2022/08/18 00:08:37;;;;;;;37.90;33.65;;;15.80;99.90;;;;;;7312905;32;20132;-66
2022/08/18 00:12:42;;;;;;;40.08;35.33;;;15.80;99.90;;;;;;7314597;32;20183;-66
2022/08/18 00:16:44;;;;;;;41.03;36.63;;;15.70;99.90;;;;;;7296484;32;20123;-66
2022/08/18 00:20:45;;;;;;;41.42;36.97;;;15.70;99.90;;;;;;7313054;32;20108;-65
2022/08/18 00:24:53;;;;;;;40.80;35.58;;;15.60;99.90;;;;;;7316180;32;20169;-66
2022/08/18 00:28:55;;;;;;;41.37;37.00;;;15.60;99.90;;;;;;7314843;32;20585;-66
2022/08/18 00:32:59;;;;;;;39.00;34.78;;;15.60;99.90;;;;;;7318403;32;20191;-66
2022/08/18 00:37:01;;;;;;;40.10;35.95;;;15.60;99.90;;;;;;7304279;32;20213;-65
2022/08/18 00:41:04;;;;;;;39.67;35.17;;;15.50;99.90;;;;;;7313450;32;20111;-67
2022/08/18 00:45:07;;;;;;;39.42;35.22;;;15.50;99.90;;;;;;7315907;32;20122;-65
2022/08/18 00:49:09;;;;;;;37.10;32.63;;;15.50;99.90;;;;;;7315379;32;20172;-65
2022/08/18 00:53:32;;;;;;;40.45;36.15;;;15.50;99.90;;;;;;7313199;32;20241;-66
2022/08/18 00:57:35;;;;;;;41.55;36.45;;;15.40;99.90;;;;;;7315495;32;20471;-63
2022/08/18 01:01:38;;;;;;;41.20;36.47;;;15.40;99.90;;;;;;7298866;32;20289;-65
2022/08/18 01:05:58;;;;;;;45.67;39.35;;;15.40;99.90;;;;;;7315927;32;20270;-65
2022/08/18 01:10:04;;;;;;;41.25;36.88;;;15.30;99.90;;;;;;7313536;32;20751;-65
2022/08/18 01:14:08;;;;;;;45.30;35.88;;;15.30;99.90;;;;;;7305373;32;20139;-65
2022/08/18 01:22:46;;;;;;;44.15;35.15;;;15.20;99.90;;;;;;7309704;32;20280;-65
2022/08/18 01:26:51;;;;;;;43.00;38.35;;;15.20;99.90;;;;;;7311502;32;20235;-66
2022/08/18 01:30:57;;;;;;;39.95;35.15;;;15.20;99.90;;;;;;7306085;32;20245;-65
2022/08/18 01:34:59;;;;;;;47.13;39.55;;;15.20;99.90;;;;;;7310197;32;20116;-66
2022/08/18 01:39:00;;;;;;;46.40;39.65;;;15.20;99.90;;;;;;7312645;32;20206;-66
2022/08/18 01:43:03;;;;;;;47.60;38.70;;;15.30;99.90;;;;;;7314883;32;20224;-66
2022/08/18 01:47:06;;;;;;;42.42;37.08;;;15.30;99.90;;;;;;7317502;32;20532;-66
2022/08/18 01:51:09;;;;;;;40.40;36.08;;;15.40;99.90;;;;;;7310403;32;20103;-65
2022/08/18 01:55:11;;;;;;;39.42;34.85;;;15.30;99.90;;;;;;7312447;32;20207;-65
2022/08/18 01:59:15;;;;;;;40.50;36.03;;;15.30;99.90;;;;;;7313068;32;20197;-65
2022/08/18 02:03:17;;;;;;;44.65;37.17;;;15.40;99.90;;;;;;7312559;32;20123;-66
2022/08/18 02:07:19;;;;;;;44.03;38.55;;;15.30;99.90;;;;;;7296662;32;20129;-65
2022/08/18 02:11:21;;;;;;;45.75;38.92;;;15.40;99.90;;;;;;7315002;32;20199;-65
2022/08/18 02:15:22;;;;;;;50.25;42.38;;;15.40;99.90;;;;;;7311086;32;20143;-65
2022/08/18 02:19:24;;;;;;;52.17;43.42;;;15.50;99.90;;;;;;7317461;32;20141;-66
2022/08/18 02:23:26;;;;;;;52.60;44.70;;;15.50;99.90;;;;;;7316474;32;20111;-66
2022/08/18 02:27:28;;;;;;;55.63;43.92;;;15.50;99.90;;;;;;7309516;32;20199;-65
2022/08/18 02:31:31;;;;;;;52.10;44.28;;;15.60;99.90;;;;;;7299532;32;20294;-65
2022/08/18 02:35:32;;;;;;;46.30;40.75;;;15.70;99.90;;;;;;7319800;32;20276;-65
2022/08/18 02:39:36;;;;;;;46.72;41.60;;;15.70;99.90;;;;;;7308346;32;20222;-66
2022/08/18 02:43:40;;;;;;;48.87;41.92;;;15.80;99.90;;;;;;7311908;32;20190;-65
2022/08/18 02:47:42;;;;;;;54.58;45.30;;;15.90;99.90;;;;;;7316524;32;20112;-64
2022/08/18 02:51:45;;;;;;;51.05;43.70;;;16.10;99.90;;;;;;7305196;32;20585;-65
2022/08/18 02:55:47;;;;;;;69.75;54.58;;;16.20;99.90;;;;;;7313106;32;20107;-66
2022/08/18 02:59:49;;;;;;;79.80;57.70;;;16.40;99.90;;;;;;7310451;32;20124;-65
2022/08/18 03:03:52;;;;;;;86.53;64.12;;;16.60;99.90;;;;;;7307589;32;20206;-65
2022/08/18 03:07:58;;;;;;;89.18;62.50;;;17.00;99.90;;;;;;7292523;32;20187;-66
2022/08/18 03:12:01;;;;;;;96.18;67.43;;;17.10;99.90;;;;;;7307093;32;20270;-64
2022/08/18 03:16:03;;;;;;;89.80;62.70;;;17.10;99.90;;;;;;7311936;32;20228;-65
2022/08/18 03:20:05;;;;;;;88.87;62.45;;;17.10;99.90;;;;;;7308946;32;20512;-66
2022/08/18 03:24:11;;;;;;;90.62;64.97;;;17.30;99.90;;;;;;7314862;32;20461;-65
2022/08/18 03:28:14;;;;;;;83.60;59.50;;;17.30;99.90;;;;;;7314604;32;20176;-64
2022/08/18 03:32:17;;;;;;;84.97;61.05;;;17.30;99.90;;;;;;7314388;32;20464;-66
2022/08/18 03:36:22;;;;;;;96.60;66.57;;;17.20;99.90;;;;;;7313367;32;20456;-66
2022/08/18 03:40:24;;;;;;;99.13;66.12;;;17.30;99.90;;;;;;7310142;32;20131;-65
2022/08/18 03:44:31;;;;;;;91.93;63.80;;;17.30;99.90;;;;;;7319532;32;20119;-66
2022/08/18 03:48:32;;;;;;;88.35;60.28;;;17.40;99.90;;;;;;7311727;32;20223;-65
2022/08/18 03:52:37;;;;;;;83.15;57.58;;;17.40;99.90;;;;;;7314742;32;20222;-65
2022/08/18 03:56:44;;;;;;;81.28;57.17;;;17.40;99.90;;;;;;7309901;32;20150;-62
2022/08/18 04:00:46;;;;;;;79.20;54.78;;;17.40;99.90;;;;;;7313606;32;20203;-66
2022/08/18 04:04:48;;;;;;;81.70;53.87;;;17.30;99.90;;;;;;7301817;32;20147;-65
2022/08/18 04:08:53;;;;;;;81.60;55.08;;;17.40;99.90;;;;;;7321984;32;20187;-65
2022/08/18 04:12:55;;;;;;;80.87;53.95;;;17.40;99.90;;;;;;7314377;32;20172;-64
2022/08/18 04:16:58;;;;;;;84.32;56.78;;;17.50;99.90;;;;;;7317952;32;20201;-65
2022/08/18 04:21:02;;;;;;;85.18;56.42;;;17.50;99.90;;;;;;7320225;32;20530;-62
2022/08/18 04:25:08;;;;;;;75.65;53.58;;;17.50;99.90;;;;;;7305119;32;20139;-62
2022/08/18 04:29:11;;;;;;;80.87;54.05;;;17.50;99.90;;;;;;7312105;32;20135;-62
2022/08/18 04:33:13;;;;;;;77.90;52.70;;;17.50;99.90;;;;;;7316140;32;20155;-62
2022/08/18 04:37:16;;;;;;;78.43;53.87;;;17.50;99.90;;;;;;7313426;32;20178;-62
2022/08/18 04:41:18;;;;;;;80.60;55.08;;;17.50;99.90;;;;;;7300724;32;20518;-62
2022/08/18 04:45:20;;;;;;;81.93;53.38;;;17.50;99.90;;;;;;7317903;32;20130;-63
2022/08/18 04:49:24;;;;;;;86.15;56.83;;;17.50;99.90;;;;;;7315462;32;20281;-63
2022/08/18 04:53:45;;;;;;;92.43;55.08;;;17.50;99.90;;;;;;7306467;32;20119;-61
2022/08/18 04:57:46;;;;;;;83.03;53.65;;;17.50;99.90;;;;;;7301353;32;20231;-60
2022/08/18 05:01:48;;;;;;;77.32;52.88;;;17.50;99.90;;;;;;7315811;32;20182;-61
2022/08/18 05:05:50;;;;;;;72.95;51.42;;;17.50;99.90;;;;;;7314216;32;20808;-61
2022/08/18 05:09:53;;;;;;;78.25;53.22;;;17.50;99.90;;;;;;7313127;32;20202;-58
2022/08/18 05:13:56;;;;;;;73.62;50.20;;;17.50;99.90;;;;;;7316677;32;20158;-59
2022/08/18 05:17:58;;;;;;;68.35;50.47;;;17.60;99.90;;;;;;7304356;32;20149;-60
2022/08/18 05:22:01;;;;;;;68.72;50.03;;;17.70;99.90;;;;;;7316169;32;20317;-59
2022/08/18 05:26:04;;;;;;;63.65;47.22;;;17.90;99.90;;;;;;7315879;32;20480;-60
2022/08/18 05:30:07;;;;;;;67.57;47.20;;;17.90;99.90;;;;;;7314565;32;20182;-60
2022/08/18 05:34:08;;;;;;;67.93;47.88;;;18.00;99.90;;;;;;7318492;32;22230;-60
2022/08/18 05:38:36;;;;;;;72.10;49.83;;;18.00;99.90;;;;;;7313742;32;20167;-59
2022/08/18 05:42:39;;;;;;;;;;;18.00;99.90;;;;;;7317335;32;20147;-61
2022/08/18 05:47:03;;;;;;;64.32;48.90;;;18.10;99.90;;;;;;7311193;32;20011;-60
2022/08/18 05:51:14;;;;;;;59.28;45.72;;;18.20;99.90;;;;;;7314924;32;20186;-60
2022/08/18 06:00:04;;;;;;;59.08;45.28;;;18.40;99.90;;;;;;7314513;32;20165;-60
2022/08/18 06:04:21;;;;;;;59.15;45.47;;;18.50;99.90;;;;;;7311783;32;20187;-60
2022/08/18 06:08:39;;;;;;;60.30;46.17;;;18.50;99.90;;;;;;7313874;32;20123;-60
2022/08/18 06:12:43;;;;;;;63.17;46.70;;;18.50;99.90;;;;;;7320825;32;20202;-60
2022/08/18 06:16:54;;;;;;;56.15;44.63;;;18.70;99.90;;;;;;7303906;32;20177;-60
2022/08/18 06:21:09;;;;;;;55.78;43.05;;;18.60;99.90;;;;;;7313548;32;20107;-60
2022/08/18 06:25:39;;;;;;;55.05;44.38;;;18.60;99.90;;;;;;7317483;32;20159;-61
2022/08/18 06:30:06;;;;;;;54.70;42.38;;;18.60;99.90;;;;;;7297783;32;20154;-60
2022/08/18 06:34:24;;;;;;;57.58;45.90;;;18.70;99.90;;;;;;7314887;32;20305;-59
2022/08/18 06:38:37;;;;;;;54.60;43.87;;;18.70;99.90;;;;;;7304266;32;20666;-65
2022/08/18 06:42:39;;;;;;;56.92;43.90;;;18.70;99.90;;;;;;7312450;32;20300;-66
2022/08/18 06:47:07;;;;;;;58.87;45.00;;;18.70;99.90;;;;;;7318451;32;20678;-65
2022/08/18 06:51:13;;;;;;;61.83;47.28;;;18.80;99.90;;;;;;7315925;32;20176;-66
2022/08/18 06:55:17;;;;;;;63.50;47.15;;;18.80;99.90;;;;;;7320446;32;20116;-66
2022/08/18 06:59:29;;;;;;;68.28;48.10;;;18.80;99.90;;;;;;7315937;32;20191;-65
2022/08/18 07:03:38;;;;;;;62.35;45.25;;;18.80;99.90;;;;;;7315482;32;20452;-67
2022/08/18 07:07:41;;;;;;;64.55;48.47;;;18.80;99.90;;;;;;7313173;32;20735;-66
2022/08/18 07:12:03;;;;;;;69.57;50.78;;;18.90;99.90;;;;;;7309862;32;20180;-65
2022/08/18 07:16:30;;;;;;;68.12;50.30;;;18.80;99.90;;;;;;7315309;32;20103;-65
2022/08/18 07:20:53;;;;;;;66.82;47.55;;;18.80;99.90;;;;;;7316644;32;20278;-65
2022/08/18 07:24:59;;;;;;;66.47;49.88;;;18.90;99.90;;;;;;7319948;32;20759;-64
2022/08/18 07:29:14;;;;;;;63.20;46.97;;;18.90;99.90;;;;;;7313235;32;20330;-65
2022/08/18 07:33:22;;;;;;;62.92;48.13;;;18.90;99.90;;;;;;7314876;32;20233;-64
2022/08/18 07:37:28;;;;;;;64.25;45.95;;;18.90;99.90;;;;;;7298791;32;20238;-65
2022/08/18 07:41:41;;;;;;;67.35;48.50;;;19.00;99.90;;;;;;7318746;32;20135;-65
2022/08/18 07:45:45;;;;;;;58.65;44.55;;;19.00;99.90;;;;;;7319348;32;20456;-66
2022/08/18 07:49:47;;;;;;;58.72;45.00;;;19.10;99.90;;;;;;7302672;32;20290;-66
2022/08/18 07:54:27;;;;;;;56.58;44.45;;;19.20;99.90;;;;;;7311319;32;20146;-66
2022/08/18 07:59:04;;;;;;;54.80;42.50;;;19.40;99.90;;;;;;7312470;32;20176;-66
2022/08/18 08:04:04;;;;;;;58.22;44.65;;;19.40;99.90;;;;;;7316789;32;20112;-66
2022/08/18 08:08:32;;;;;;;51.85;40.85;;;19.50;99.90;;;;;;7235125;32;20714;-66
2022/08/18 08:13:11;;;;;;;60.38;45.30;;;19.60;99.90;;;;;;7276956;32;20583;-66
2022/08/18 08:17:31;;;;;;;54.20;42.67;;;19.40;99.90;;;;;;7314307;32;20187;-64
2022/08/18 08:21:39;;;;;;;56.00;43.58;;;19.60;99.90;;;;;;7308179;32;20559;-66
2022/08/18 08:25:43;;;;;;;58.22;45.60;;;19.70;99.90;;;;;;7318377;32;20513;-65
2022/08/18 08:30:05;;;;;;;52.17;43.05;;;19.80;99.90;;;;;;7304087;32;20146;-64
2022/08/18 08:34:26;;;;;;;50.83;42.28;;;20.00;99.90;;;;;;7315951;32;20115;-64
2022/08/18 08:38:48;;;;;;;48.45;38.92;;;20.30;99.90;;;;;;7314861;32;20155;-66
2022/08/18 08:43:01;;;;;;;42.80;37.08;;;20.60;99.90;;;;;;7321581;32;20119;-65
2022/08/18 08:47:20;;;;;;;48.08;38.17;;;20.80;99.90;;;;;;7319625;32;20677;-66
2022/08/18 08:51:47;;;;;;;41.67;35.97;;;21.00;99.90;;;;;;7315900;32;20135;-64
2022/08/18 08:55:55;;;;;;;40.53;34.88;;;21.10;99.90;;;;;;7319536;32;20126;-64
2022/08/18 09:00:07;;;;;;;41.53;33.30;;;21.20;99.90;;;;;;7316373;32;20280;-65
2022/08/18 09:04:28;;;;;;;40.63;35.08;;;21.30;99.90;;;;;;7299071;32;20140;-63
2022/08/18 09:08:54;;;;;;;40.38;34.75;;;21.40;99.90;;;;;;7316427;32;20112;-64
2022/08/18 09:13:27;;;;;;;31.90;28.55;;;21.30;99.90;;;;;;7309580;32;20175;-65
2022/08/18 09:17:55;;;;;;;37.03;32.35;;;21.70;99.90;;;;;;7316534;32;20441;-63
2022/08/18 09:21:59;;;;;;;34.57;30.90;;;21.80;99.90;;;;;;7319363;32;20153;-65
2022/08/18 09:26:40;;;;;;;35.10;30.75;;;21.70;99.90;;;;;;7321538;32;20120;-65
2022/08/18 09:30:50;;;;;;;35.45;31.33;;;21.60;99.90;;;;;;7317214;32;20173;-64
2022/08/18 09:35:40;;;;;;;29.65;26.35;;;21.70;99.90;;;;;;7296510;32;20202;-65
2022/08/18 09:44:39;;;;;;;26.85;24.02;;;22.50;99.90;;;;;;7309603;32;20223;-64
2022/08/18 09:48:43;;;;;;;27.27;24.42;;;23.00;99.90;;;;;;7317177;32;20264;-66
2022/08/18 09:52:47;;;;;;;24.98;22.20;;;23.00;99.90;;;;;;7314126;32;20119;-66
2022/08/18 09:56:49;;;;;;;25.75;23.08;;;23.10;99.90;;;;;;7313372;32;20303;-66
2022/08/18 10:01:17;;;;;;;28.35;24.37;;;22.80;99.90;;;;;;7310728;32;20214;-66
2022/08/18 10:05:19;;;;;;;24.55;22.05;;;22.60;99.90;;;;;;7317883;32;20333;-67
2022/08/18 10:09:48;;;;;;;28.52;25.45;;;22.50;99.90;;;;;;7317940;32;20225;-66
2022/08/18 10:14:01;;;;;;;;;;;22.70;99.90;;;;;;7311062;32;20305;-66
2022/08/18 10:18:19;;;;;;;24.75;21.45;;;22.70;99.90;;;;;;7316819;32;20445;-66
2022/08/18 10:22:46;;;;;;;28.17;24.63;;;22.70;99.90;;;;;;7315762;32;20118;-67
2022/08/18 10:26:48;;;;;;;26.03;23.03;;;22.70;99.90;;;;;;7322459;32;20194;-66
2022/08/18 10:31:05;;;;;;;25.67;23.10;;;22.70;99.90;;;;;;7313098;32;20561;-66
2022/08/18 10:35:36;;;;;;;23.38;20.75;;;22.80;99.90;;;;;;7310988;32;20528;-67
2022/08/18 10:39:38;;;;;;;23.70;20.12;;;22.90;99.90;;;;;;7315036;32;20227;-66
2022/08/18 10:43:47;;;;;;;28.05;24.65;;;23.10;99.90;;;;;;7315529;32;20270;-66
2022/08/18 10:48:20;;;;;;;26.33;22.60;;;22.70;99.90;;;;;;7313412;32;20133;-66
2022/08/18 10:52:49;;;;;;;25.08;22.52;;;22.70;99.90;;;;;;7316141;32;20201;-66
2022/08/18 10:57:16;;;;;;;26.10;23.45;;;22.80;99.90;;;;;;7305310;32;20164;-64
2022/08/18 11:01:31;;;;;;;26.62;23.83;;;22.70;99.90;;;;;;7291357;32;20167;-66
2022/08/18 11:06:05;;;;;;;25.42;22.83;;;22.80;99.90;;;;;;7312685;32;20679;-66
2022/08/18 11:10:23;;;;;;;27.75;25.10;;;22.70;99.90;;;;;;7301716;32;20107;-67
2022/08/18 11:14:33;;;;;;;25.77;23.25;;;22.60;99.90;;;;;;7312563;32;20658;-67
2022/08/18 11:18:46;;;;;;;26.33;23.52;;;22.80;99.90;;;;;;7312385;32;20765;-66
2022/08/18 11:22:55;;;;;;;23.98;21.67;;;23.20;99.90;;;;;;7311931;32;20231;-67
2022/08/18 11:27:16;;;;;;;22.50;20.30;;;23.60;99.90;;;;;;7313907;32;20111;-67
2022/08/18 11:31:18;;;;;;;22.75;20.37;;;23.80;99.90;;;;;;7306395;32;20107;-67
2022/08/18 11:35:31;;;;;;;22.08;19.80;;;23.70;99.90;;;;;;7312310;32;20972;-68
2022/08/18 11:39:46;;;;;;;21.23;19.23;;;23.80;99.90;;;;;;7307339;32;20635;-68
2022/08/18 11:43:55;;;;;;;23.00;20.70;;;23.70;99.90;;;;;;7309372;32;20128;-67
2022/08/18 11:48:01;;;;;;;21.90;19.58;;;23.50;99.90;;;;;;7302133;32;20188;-67
2022/08/18 11:52:18;;;;;;;19.42;17.62;;;23.70;99.90;;;;;;7310563;32;20199;-67
2022/08/18 11:56:40;;;;;;;15.35;13.75;;;23.90;99.90;;;;;;7315421;32;20295;-66
2022/08/18 12:00:47;;;;;;;15.85;14.18;;;24.10;99.90;;;;;;7311474;32;20221;-67
2022/08/18 12:05:03;;;;;;;16.77;14.98;;;24.30;99.90;;;;;;7319242;32;20317;-65
2022/08/18 12:09:20;;;;;;;16.62;14.52;;;24.40;99.90;;;;;;7315720;32;20122;-68
2022/08/18 12:13:55;;;;;;;17.98;16.08;;;24.20;99.90;;;;;;7316581;32;20131;-67
2022/08/18 12:17:57;;;;;;;18.85;16.98;;;24.10;99.90;;;;;;7305687;32;20343;-62
2022/08/18 12:22:12;;;;;;;21.10;18.92;;;23.90;99.90;;;;;;7313609;32;20161;-67
2022/08/18 12:26:14;;;;;;;24.02;21.62;;;23.70;99.90;;;;;;7323285;32;20692;-68
2022/08/18 12:30:36;;;;;;;22.92;19.75;;;23.40;99.90;;;;;;7319339;32;20112;-67
2022/08/18 12:34:42;;;;;;;24.87;22.20;;;23.50;99.90;;;;;;7318461;32;20213;-66
2022/08/18 12:38:44;;;;;;;27.42;24.67;;;23.50;99.90;;;;;;7306022;32;20246;-67
2022/08/18 12:42:56;;;;;;;28.42;25.42;;;23.50;99.90;;;;;;7311604;32;20276;-67
2022/08/18 12:47:01;;;;;;;27.52;24.80;;;23.40;99.90;;;;;;7314417;32;20234;-68
2022/08/18 12:51:05;;;;;;;25.37;22.83;;;23.30;99.90;;;;;;7315692;32;20115;-63
2022/08/18 12:55:10;;;;;;;28.15;25.60;;;23.30;99.90;;;;;;7318948;32;20155;-63
2022/08/18 12:59:23;;;;;;;26.40;23.80;;;23.30;99.90;;;;;;7312838;32;20284;-63
2022/08/18 13:03:25;;;;;;;28.60;25.90;;;23.20;99.90;;;;;;7314713;32;20819;-62
2022/08/18 13:07:28;;;;;;;26.45;23.62;;;23.20;99.90;;;;;;7317392;32;20171;-61
2022/08/18 13:11:31;;;;;;;27.27;24.67;;;23.30;99.90;;;;;;7317447;32;20142;-62
2022/08/18 13:15:35;;;;;;;26.27;23.75;;;23.30;99.90;;;;;;7320796;32;20206;-62
2022/08/18 13:19:38;;;;;;;28.25;25.62;;;23.70;99.90;;;;;;7318986;32;20244;-67
2022/08/18 13:23:41;;;;;;;28.35;25.65;;;23.70;99.90;;;;;;7319815;32;20695;-63
2022/08/18 13:27:43;;;;;;;27.15;24.58;;;23.80;99.90;;;;;;7313881;32;20214;-61
2022/08/18 13:31:46;;;;;;;25.30;23.00;;;24.10;99.90;;;;;;7315955;32;20289;-63
2022/08/18 13:35:58;;;;;;;24.55;22.23;;;24.20;99.90;;;;;;7313412;32;20099;-62
2022/08/18 13:40:00;;;;;;;25.37;23.12;;;24.40;99.90;;;;;;7319696;32;20207;-63
2022/08/18 13:44:03;;;;;;;21.55;19.65;;;24.50;99.90;;;;;;7318036;32;20458;-62
2022/08/18 13:48:04;;;;;;;21.45;19.37;;;24.60;99.90;;;;;;7316507;32;20115;-62
2022/08/18 13:52:11;;;;;;;21.87;19.60;;;25.10;99.90;;;;;;7310465;32;20107;-63
2022/08/18 13:56:33;;;;;;;21.37;19.48;;;25.20;99.90;;;;;;7292460;32;20281;-61
2022/08/18 14:00:36;;;;;;;18.17;16.67;;;25.30;99.90;;;;;;7310150;32;20123;-62
2022/08/18 14:04:39;;;;;;;19.02;17.37;;;25.30;99.90;;;;;;7313077;32;20142;-61
2022/08/18 14:08:45;;;;;;;14.07;12.83;;;25.50;99.90;;;;;;7316423;32;20108;-61
2022/08/18 14:12:47;;;;;;;13.75;12.55;;;25.60;99.90;;;;;;7314559;32;20135;-68
2022/08/18 14:16:50;;;;;;;10.13;9.27;;;25.80;99.90;;;;;;7310212;32;20151;-65
2022/08/18 14:29:34;;;;;;;7.10;6.37;;;25.60;99.90;;;;;;7319452;32;20206;-67
2022/08/18 14:33:48;;;;;;;6.90;6.18;;;25.80;99.90;;;;;;7305516;32;20440;-67
2022/08/18 14:37:55;;;;;;;9.27;7.05;;;26.30;99.90;;;;;;7315456;32;20302;-67
2022/08/18 14:41:58;;;;;;;8.18;7.30;;;26.60;99.90;;;;;;7318444;32;20142;-65
2022/08/18 14:46:04;;;;;;;5.30;4.78;;;26.70;99.90;;;;;;7313254;32;20224;-67
2022/08/18 14:50:11;;;;;;;4.15;3.70;;;26.70;99.90;;;;;;7308510;32;20242;-63
2022/08/18 14:54:16;;;;;;;8.98;7.60;;;26.50;99.90;;;;;;7307956;32;20177;-67
2022/08/18 14:58:27;;;;;;;5.82;5.32;;;26.20;99.90;;;;;;7296828;32;20311;-67
2022/08/18 15:02:29;;;;;;;6.85;4.80;;;25.80;99.90;;;;;;7308308;32;20119;-67
2022/08/18 15:06:31;;;;;;;4.55;4.10;;;26.20;99.90;;;;;;7309198;32;20249;-67
2022/08/18 15:10:33;;;;;;;4.90;4.32;;;26.00;99.90;;;;;;7309696;32;20718;-66
2022/08/18 15:14:35;;;;;;;5.87;4.72;;;26.10;99.90;;;;;;7306059;32;20558;-67
2022/08/18 15:18:36;;;;;;;5.65;4.95;;;26.10;99.90;;;;;;7313229;32;20203;-66
2022/08/18 15:27:05;;;;;;;6.30;5.70;;;25.20;99.90;;;;;;7299220;32;20223;-67
2022/08/18 15:31:13;;;;;;;5.78;5.28;;;25.20;99.90;;;;;;7305353;32;20214;-67
2022/08/18 15:35:36;;;;;;;6.62;4.78;;;25.20;99.90;;;;;;7318126;32;20330;-67
2022/08/18 15:39:44;;;;;;;4.12;3.83;;;25.20;99.90;;;;;;7312450;32;20218;-67
2022/08/18 15:43:46;;;;;;;6.53;5.90;;;25.20;99.90;;;;;;7313622;32;20176;-67
2022/08/18 15:47:48;;;;;;;7.30;4.78;;;25.20;99.90;;;;;;7312427;32;20167;-67
2022/08/18 15:51:52;;;;;;;7.85;5.07;;;25.20;99.90;;;;;;7314571;32;20115;-67
2022/08/18 15:55:53;;;;;;;6.80;4.72;;;25.30;99.90;;;;;;7320094;32;20348;-67
2022/08/18 15:59:59;;;;;;;5.05;4.57;;;25.30;99.90;;;;;;7314828;32;20134;-66
2022/08/18 16:04:02;;;;;;;7.15;6.22;;;25.30;99.90;;;;;;7322843;32;20262;-67
2022/08/18 16:08:06;;;;;;;5.60;5.10;;;25.40;99.90;;;;;;7316646;32;20235;-66
2022/08/18 16:12:10;;;;;;;7.03;4.82;;;25.50;99.90;;;;;;7315667;32;20211;-62
2022/08/18 16:16:17;;;;;;;7.53;5.15;;;25.50;99.90;;;;;;7310973;32;20140;-62
2022/08/18 16:20:37;;;;;;;9.88;6.57;;;25.60;99.90;;;;;;7313379;32;20583;-65
2022/08/18 16:24:39;;;;;;;7.72;4.70;;;25.30;99.90;;;;;;7304215;32;20871;-64
2022/08/18 16:28:44;;;;;;;4.53;4.12;;;25.30;99.90;;;;;;7317136;32;20207;-65
2022/08/18 16:32:47;;;;;;;8.77;4.60;;;25.30;99.90;;;;;;7309279;32;20206;-65
2022/08/18 16:36:48;;;;;;;4.10;3.72;;;25.30;99.90;;;;;;7306170;32;20150;-65
2022/08/18 16:40:50;;;;;;;5.95;4.75;;;25.30;99.90;;;;;;7307960;32;20635;-67
2022/08/18 16:44:52;;;;;;;8.60;4.97;;;25.10;99.90;;;;;;7316175;32;20155;-65
2022/08/18 16:48:55;;;;;;;5.90;4.57;;;25.20;99.90;;;;;;7310415;32;20379;-65
2022/08/18 16:52:57;;;;;;;5.50;4.45;;;25.00;99.90;;;;;;7312912;32;20156;-66
2022/08/18 17:04:04;;;;;;;4.25;3.83;;;24.90;99.90;;;;;;7314425;32;20213;-65
2022/08/18 17:04:06;;;;;;;7.68;4.70;;;24.80;99.90;;;;;;7314704;32;20560;-64
2022/08/18 17:06:35;;;;;;;10.65;7.60;;;24.80;99.90;;;;;;7320877;32;20168;-64
2022/08/18 17:10:48;;;;;;;4.87;4.25;;;24.80;99.90;;;;;;7318869;32;20107;-64
2022/08/18 17:14:51;;;;;;;8.05;5.07;;;24.60;99.90;;;;;;7318027;32;20116;-65
2022/08/18 17:18:54;;;;;;;14.32;6.53;;;24.50;99.90;;;;;;7317161;32;20230;-65
2022/08/18 17:22:57;;;;;;;12.73;10.10;;;24.40;99.90;;;;;;7313310;32;20129;-61
2022/08/18 17:27:17;;;;;;;6.43;5.10;;;24.50;99.90;;;;;;7312803;32;20190;-67
2022/08/18 17:31:28;;;;;;;5.10;4.50;;;24.40;99.90;;;;;;7318680;32;20260;-68
2022/08/18 17:35:43;;;;;;;5.07;4.57;;;24.30;99.90;;;;;;7308232;32;20116;-68
2022/08/18 17:39:54;;;;;;;5.57;3.85;;;24.30;99.90;;;;;;7302224;32;20115;-66
2022/08/18 17:43:57;;;;;;;4.50;4.07;;;24.20;99.90;;;;;;7313360;32;20112;-66
2022/08/18 17:48:13;;;;;;;6.00;4.40;;;24.30;99.90;;;;;;7311562;32;20646;-66
2022/08/18 17:52:18;;;;;;;4.60;4.20;;;24.20;99.90;;;;;;7315666;32;20111;-69
2022/08/18 17:56:25;;;;;;;5.18;4.28;;;24.20;99.90;;;;;;7307667;32;20534;-66
2022/08/18 18:00:36;;;;;;;6.20;5.12;;;24.10;99.90;;;;;;7321200;32;20124;-67
2022/08/18 18:04:42;;;;;;;7.18;4.68;;;24.00;99.90;;;;;;7320423;32;20184;-67
2022/08/18 18:08:57;;;;;;;6.07;4.55;;;23.90;99.90;;;;;;7306203;32;20337;-59
2022/08/18 18:13:23;;;;;;;7.40;4.85;;;23.90;99.90;;;;;;7321107;32;20211;-65
2022/08/18 18:17:32;;;;;;;12.45;4.90;;;23.90;99.90;;;;;;7319106;32;20167;-67
2022/08/18 18:21:35;;;;;;;7.10;4.97;;;23.80;99.90;;;;;;7318273;32;20233;-66
2022/08/18 18:25:57;;;;;;;8.70;5.90;;;23.70;99.90;;;;;;7319688;32;20155;-64
2022/08/18 18:30:06;;;;;;;10.50;4.90;;;23.50;99.90;;;;;;7315362;32;20161;-65
2022/08/18 18:34:25;;;;;;;7.07;4.30;;;23.50;99.90;;;;;;7317409;32;20625;-66
2022/08/18 18:38:39;;;;;;;17.83;15.95;;;23.40;99.90;;;;;;7322099;32;20126;-66
2022/08/18 18:42:41;;;;;;;10.23;8.07;;;23.30;99.90;;;;;;7314016;32;20112;-68
2022/08/18 18:46:51;;;;;;;6.07;4.82;;;23.20;99.90;;;;;;7302946;32;20112;-64
2022/08/18 18:51:06;;;;;;;5.20;4.65;;;23.10;99.90;;;;;;7310140;32;20100;-64
2022/08/18 18:55:21;;;;;;;6.03;4.72;;;22.90;99.90;;;;;;7317963;32;20127;-64
2022/08/18 18:59:56;;;;;;;20.12;14.48;;;22.80;99.90;;;;;;7306150;32;20119;-68
2022/08/18 19:04:11;;;;;;;9.90;7.57;;;22.80;99.90;;;;;;7317896;32;20124;-65
2022/08/18 19:08:39;;;;;;;8.10;5.55;;;22.60;99.90;;;;;;7306723;32;20184;-65
2022/08/18 19:12:56;;;;;;;;;;;22.60;99.90;;;;;;7313530;32;20260;-64
2022/08/18 19:17:26;;;;;;;7.50;6.00;;;22.40;99.90;;;;;;7310210;32;20699;-66
2022/08/18 19:21:29;;;;;;;6.45;5.78;;;22.20;99.90;;;;;;7308876;32;20112;-65
2022/08/18 19:25:53;;;;;;;6.43;5.78;;;22.00;99.90;;;;;;7307941;32;20191;-64
2022/08/18 19:30:00;;;;;;;10.18;5.87;;;21.80;99.90;;;;;;7312830;32;20201;-64
2022/08/18 19:34:07;;;;;;;9.07;5.63;;;21.70;99.90;;;;;;7311318;32;20631;-64
2022/08/18 19:38:20;;;;;;;7.10;6.40;;;21.60;99.90;;;;;;7303217;32;20679;-64
2022/08/18 19:42:36;;;;;;;8.88;6.65;;;21.30;99.90;;;;;;7307253;32;20551;-65
2022/08/18 19:46:52;;;;;;;10.18;6.82;;;21.10;99.90;;;;;;7312265;32;20304;-63
2022/08/18 19:51:13;;;;;;;7.87;7.18;;;20.90;99.90;;;;;;7315574;32;20198;-64
2022/08/18 19:56:01;;;;;;;12.88;7.30;;;20.70;99.90;;;;;;7315902;32;20168;-64
2022/08/18 20:00:29;;;;;;;15.90;14.20;;;20.50;99.90;;;;;;7312573;32;20171;-63
2022/08/18 20:05:10;;;;;;;12.37;7.35;;;20.40;99.90;;;;;;7310779;32;20199;-63
2022/08/18 20:09:30;;;;;;;8.30;7.50;;;20.20;99.90;;;;;;7312638;32;20197;-64
2022/08/18 20:13:36;;;;;;;10.82;7.47;;;20.00;99.90;;;;;;7309626;32;20205;-63
2022/08/18 20:17:52;;;;;;;8.18;6.78;;;19.90;99.90;;;;;;7311755;32;20124;-64
2022/08/18 20:22:03;;;;;;;11.15;7.22;;;19.80;99.90;;;;;;7315003;32;20699;-64
2022/08/18 20:26:38;;;;;;;7.87;6.90;;;19.70;99.90;;;;;;7303934;32;20262;-64
2022/08/18 20:30:51;;;;;;;7.90;7.10;;;19.50;99.90;;;;;;7300997;32;20230;-64
2022/08/18 20:35:18;;;;;;;8.10;7.30;;;19.40;99.90;;;;;;7312881;32;20602;-65
2022/08/18 20:39:46;;;;;;;9.30;6.97;;;19.30;99.90;;;;;;7313515;32;20184;-64
2022/08/18 20:43:52;;;;;;;11.07;7.93;;;19.10;99.90;;;;;;7320925;32;20815;-64
2022/08/18 20:48:12;;;;;;;8.35;7.55;;;19.00;99.90;;;;;;7317410;32;20259;-64
2022/08/18 20:52:30;;;;;;;10.75;7.35;;;18.90;99.90;;;;;;7313754;32;20221;-64
2022/08/18 20:56:57;;;;;;;10.35;7.85;;;18.80;99.90;;;;;;7324178;32;20115;-64
2022/08/18 21:01:00;;;;;;;10.15;7.57;;;18.70;99.90;;;;;;7324334;32;20195;-62
2022/08/18 21:05:11;;;;;;;10.70;7.25;;;18.60;99.90;;;;;;7323884;32;20222;-64
2022/08/18 21:09:29;;;;;;;12.93;8.20;;;18.60;99.90;;;;;;7318489;32;20140;-65
2022/08/18 21:13:38;;;;;;;9.10;7.68;;;18.50;99.90;;;;;;7313891;32;20616;-65
2022/08/18 21:17:42;;;;;;;10.73;8.93;;;18.40;99.90;;;;;;7306873;32;20116;-65
2022/08/18 21:21:57;;;;;;;9.63;8.63;;;18.30;99.90;;;;;;7318070;32;20282;-65
2022/08/18 21:26:08;;;;;;;10.63;8.32;;;18.20;99.90;;;;;;7318111;32;20259;-65
2022/08/18 21:30:20;;;;;;;13.10;8.55;;;18.10;99.90;;;;;;7303433;32;20189;-65
2022/08/18 21:34:32;;;;;;;9.88;8.40;;;18.00;99.90;;;;;;7315514;32;20189;-65
2022/08/18 21:38:36;;;;;;;9.35;8.35;;;17.90;99.90;;;;;;7313387;32;20277;-65
2022/08/18 21:42:39;;;;;;;9.23;8.32;;;17.80;99.90;;;;;;7310516;32;20204;-65
2022/08/18 21:46:42;;;;;;;12.35;8.05;;;17.70;99.90;;;;;;7313291;32;20134;-64